Time;durP1;ratioP1;P1;durP2;ratioP2;P2;SDS_P1;SDS_P2;PMS_P1;PMS_P2;Temp;Humidity;BMP_temperature;BMP_pressure;BME280_temperature;BME280_humidity;BME280_pressure;Samples;Min_cycle;Max_cycle;Signal;HPM_P1;HPM_P2
2021/01/09 00:00:06;;;;;;;18.27;12.90;;;2.60;80.70;;;;;;5016485;28;20436;-73
2021/01/09 00:02:32;;;;;;;18.02;12.98;;;3.00;75.60;;;;;;5016602;28;20798;-72
2021/01/09 00:04:57;;;;;;;17.33;12.30;;;3.10;72.50;;;;;;5017878;28;20520;-72
2021/01/09 00:07:23;;;;;;;21.53;14.20;;;3.20;69.40;;;;;;5016061;28;20396;-73
2021/01/09 00:09:48;;;;;;;20.23;13.80;;;2.90;71.70;;;;;;5015119;28;20427;-72
2021/01/09 00:12:14;;;;;;;17.90;13.00;;;2.80;76.10;;;;;;5016410;28;20475;-74
2021/01/09 00:14:39;;;;;;;20.77;13.63;;;2.70;77.40;;;;;;5010494;28;20485;-72
2021/01/09 00:17:08;;;;;;;23.05;14.85;;;2.60;79.00;;;;;;5016472;28;20399;-72
2021/01/09 00:19:35;;;;;;;23.83;13.93;;;2.60;80.10;;;;;;5015713;28;20412;-71
2021/01/09 00:22:00;;;;;;;20.17;13.33;;;2.60;80.70;;;;;;5015779;28;20439;-71
2021/01/09 00:24:26;;;;;;;20.58;13.13;;;2.60;79.90;;;;;;5016895;28;20448;-72
2021/01/09 00:26:52;;;;;;;19.70;13.23;;;2.70;81.30;;;;;;5017812;28;20814;-71
2021/01/09 00:29:17;;;;;;;17.63;13.07;;;3.00;75.50;;;;;;5016461;28;20855;-73
2021/01/09 00:31:43;;;;;;;21.03;13.80;;;2.80;76.30;;;;;;5006127;28;20487;-72
2021/01/09 00:34:08;;;;;;;19.25;13.05;;;2.90;77.10;;;;;;5015202;28;20778;-71
2021/01/09 00:36:35;;;;;;;16.80;12.02;;;2.90;76.60;;;;;;5017264;28;20399;-71
2021/01/09 00:39:01;;;;;;;22.42;13.85;;;2.80;76.70;;;;;;5015517;28;20539;-71
2021/01/09 00:41:31;;;;;;;18.35;12.70;;;2.70;77.90;;;;;;5015606;28;20425;-70
2021/01/09 00:43:58;;;;;;;17.52;11.85;;;2.90;80.40;;;;;;5016562;28;20388;-71
2021/01/09 00:46:23;;;;;;;16.80;12.18;;;3.30;73.20;;;;;;5014970;28;20401;-71
2021/01/09 00:48:49;;;;;;;17.85;12.10;;;3.40;71.20;;;;;;5016205;28;20461;-71
2021/01/09 00:51:16;;;;;;;17.70;12.27;;;3.40;69.80;;;;;;5016847;28;20472;-71
2021/01/09 00:53:41;;;;;;;17.00;11.50;;;3.50;66.70;;;;;;5017777;28;20440;-71
2021/01/09 00:56:07;;;;;;;17.58;11.45;;;3.50;66.70;;;;;;5014494;28;20498;-70
2021/01/09 00:58:34;;;;;;;18.17;12.35;;;3.40;67.40;;;;;;5010757;28;20455;-74
2021/01/09 01:00:59;;;;;;;19.88;11.55;;;3.40;73.00;;;;;;5011331;28;20401;-75
2021/01/09 01:03:26;;;;;;;17.57;11.10;;;3.30;70.10;;;;;;5011736;28;20404;-75
2021/01/09 01:05:51;;;;;;;21.30;12.15;;;3.20;69.30;;;;;;5012004;28;20423;-72
2021/01/09 01:08:17;;;;;;;17.40;11.77;;;3.20;70.50;;;;;;5011569;28;20397;-72
2021/01/09 01:10:42;;;;;;;17.05;11.82;;;3.10;71.20;;;;;;5010756;28;20401;-72
2021/01/09 01:13:08;;;;;;;18.63;11.93;;;3.10;72.30;;;;;;5014234;28;20483;-72
2021/01/09 01:15:33;;;;;;;20.88;12.32;;;3.00;72.80;;;;;;4996494;28;20796;-73
2021/01/09 01:18:00;;;;;;;18.90;12.83;;;3.00;73.10;;;;;;4996862;28;20864;-73
2021/01/09 01:20:26;;;;;;;19.02;12.45;;;2.90;73.50;;;;;;5002632;28;20417;-72
2021/01/09 01:22:51;;;;;;;18.40;12.27;;;2.90;74.10;;;;;;5016668;28;20997;-73
2021/01/09 01:25:17;;;;;;;19.60;12.50;;;2.90;74.60;;;;;;5014842;28;20930;-74
2021/01/09 01:27:42;;;;;;;19.00;12.27;;;2.90;74.60;;;;;;5016102;28;20712;-72
2021/01/09 01:30:08;;;;;;;20.20;12.63;;;2.90;76.40;;;;;;5015398;28;20417;-73
2021/01/09 01:32:34;;;;;;;22.60;12.48;;;2.90;75.60;;;;;;5015675;28;20739;-71
2021/01/09 01:35:00;;;;;;;19.57;12.10;;;2.90;75.30;;;;;;5016168;28;20478;-73
2021/01/09 01:37:26;;;;;;;19.48;12.50;;;2.80;75.70;;;;;;5015739;28;20380;-75
2021/01/09 01:39:51;;;;;;;19.33;12.20;;;2.90;75.90;;;;;;5014152;28;20462;-73
2021/01/09 01:42:17;;;;;;;19.67;12.70;;;3.00;75.20;;;;;;5013924;28;20404;-72
2021/01/09 01:44:42;;;;;;;20.27;13.30;;;3.00;74.60;;;;;;5013681;28;20407;-72
2021/01/09 01:47:16;;;;;;;18.67;12.13;;;2.90;76.20;;;;;;5015528;28;20397;-73
2021/01/09 01:49:42;;;;;;;22.30;13.07;;;2.90;77.90;;;;;;5015834;28;20474;-74
2021/01/09 01:52:08;;;;;;;20.93;13.13;;;3.00;76.90;;;;;;5015206;28;20393;-73
2021/01/09 01:54:33;;;;;;;20.55;13.80;;;2.80;78.20;;;;;;5012311;28;20392;-74
2021/01/09 01:57:02;;;;;;;19.83;12.93;;;2.80;79.30;;;;;;5013800;28;20381;-73
2021/01/09 01:59:27;;;;;;;18.10;12.73;;;2.70;81.10;;;;;;5013655;28;20893;-75
2021/01/09 02:01:53;;;;;;;20.90;14.00;;;2.70;82.70;;;;;;5013394;28;20393;-73
2021/01/09 02:04:19;;;;;;;22.15;14.18;;;2.80;83.90;;;;;;5013608;28;20389;-71
2021/01/09 02:06:47;;;;;;;17.52;12.25;;;2.80;83.80;;;;;;5014031;28;20409;-73
2021/01/09 02:09:25;;;;;;;15.40;10.50;;;3.30;77.70;;;;;;5016818;28;20408;-73
2021/01/09 02:12:00;;;;;;;20.60;11.43;;;3.50;69.10;;;;;;5017659;28;20384;-72
2021/01/09 02:14:38;;;;;;;16.85;11.60;;;3.50;68.30;;;;;;5011173;28;20492;-72
2021/01/09 02:17:05;;;;;;;16.30;11.73;;;3.40;69.30;;;;;;5019292;28;20761;-71
2021/01/09 02:19:34;;;;;;;17.25;11.30;;;3.40;71.10;;;;;;5017799;28;20389;-73
2021/01/09 02:22:00;;;;;;;18.00;12.07;;;3.40;71.30;;;;;;4996509;28;20422;-73
2021/01/09 02:24:25;;;;;;;17.60;12.40;;;3.30;73.00;;;;;;4996781;28;20391;-72
2021/01/09 02:26:51;;;;;;;17.90;11.80;;;3.30;73.90;;;;;;4997878;28;20401;-74
2021/01/09 02:29:17;;;;;;;17.52;11.75;;;3.30;74.10;;;;;;5010860;28;20409;-74
2021/01/09 02:32:05;;;;;;;20.83;13.20;;;3.10;76.20;;;;;;5020449;28;20381;-72
2021/01/09 02:34:50;;;;;;;20.07;13.07;;;3.10;78.90;;;;;;5020978;28;20387;-74
2021/01/09 02:37:16;;;;;;;21.95;13.93;;;3.00;79.90;;;;;;5021903;28;20392;-73
2021/01/09 02:39:43;;;;;;;17.50;12.43;;;2.90;80.40;;;;;;5021416;28;20415;-73
2021/01/09 02:42:09;;;;;;;18.95;12.20;;;3.00;82.50;;;;;;5017843;28;20413;-73
2021/01/09 02:44:35;;;;;;;21.50;12.27;;;3.40;75.80;;;;;;5024958;28;20388;-74
2021/01/09 02:47:00;;;;;;;18.75;12.27;;;3.30;74.10;;;;;;5024211;28;20885;-73
2021/01/09 02:49:26;;;;;;;18.67;12.57;;;3.50;71.20;;;;;;5023501;28;20412;-72
2021/01/09 02:51:51;;;;;;;19.50;12.43;;;3.40;70.90;;;;;;5022198;28;20415;-72
2021/01/09 02:54:17;;;;;;;19.70;12.40;;;3.40;73.00;;;;;;5020529;28;20749;-74
2021/01/09 02:56:42;;;;;;;20.67;12.73;;;3.50;70.70;;;;;;5020088;28;20431;-74
2021/01/09 02:59:08;;;;;;;18.60;12.75;;;3.30;71.60;;;;;;5017115;28;20388;-72
2021/01/09 03:01:33;;;;;;;16.25;11.30;;;3.40;74.00;;;;;;5016372;28;20384;-76
2021/01/09 03:03:59;;;;;;;18.63;12.13;;;3.60;69.40;;;;;;5014491;28;20435;-71
2021/01/09 03:06:25;;;;;;;18.07;12.90;;;3.60;67.00;;;;;;5013714;28;20446;-69
2021/01/09 03:08:52;;;;;;;18.75;12.30;;;3.20;70.70;;;;;;5014261;28;20415;-71
2021/01/09 03:11:17;;;;;;;18.35;12.50;;;3.00;74.40;;;;;;5014103;28;20475;-72
2021/01/09 03:13:44;;;;;;;20.85;12.60;;;3.30;72.90;;;;;;5003425;28;20952;-70
2021/01/09 03:16:10;;;;;;;20.80;13.52;;;3.00;73.40;;;;;;5014197;28;20389;-72
2021/01/09 03:18:35;;;;;;;23.35;13.80;;;3.00;76.00;;;;;;5013534;28;20885;-70
2021/01/09 03:21:01;;;;;;;24.30;13.38;;;3.00;76.30;;;;;;5006039;28;21073;-71
2021/01/09 03:23:27;;;;;;;20.73;12.95;;;3.10;75.70;;;;;;5012440;28;20758;-70
2021/01/09 03:25:53;;;;;;;20.52;13.00;;;2.90;75.60;;;;;;5013754;28;20389;-71
2021/01/09 03:28:18;;;;;;;20.95;13.18;;;3.00;76.50;;;;;;5013559;28;20381;-70
2021/01/09 03:30:44;;;;;;;20.87;13.33;;;2.80;78.10;;;;;;5013488;28;20389;-71
2021/01/09 03:33:10;;;;;;;22.25;13.10;;;2.80;81.60;;;;;;5012930;28;20417;-70
2021/01/09 03:35:36;;;;;;;21.88;13.82;;;2.80;83.00;;;;;;5013626;28;20727;-70
2021/01/09 03:38:01;;;;;;;19.93;13.03;;;2.70;83.50;;;;;;5013464;28;20941;-70
2021/01/09 03:40:27;;;;;;;26.70;13.20;;;2.70;83.40;;;;;;5012648;28;20385;-71
2021/01/09 03:42:53;;;;;;;19.02;12.90;;;2.60;83.90;;;;;;5013171;28;20488;-71
2021/01/09 03:45:19;;;;;;;22.27;12.43;;;2.60;84.10;;;;;;5013212;28;20483;-71
2021/01/09 03:47:44;;;;;;;21.38;12.57;;;2.60;82.90;;;;;;5013251;28;20401;-71
2021/01/09 03:50:10;;;;;;;21.55;13.15;;;2.60;83.50;;;;;;5012823;28;20417;-70
2021/01/09 03:52:36;;;;;;;21.00;12.63;;;2.50;83.60;;;;;;5013112;28;20786;-70
2021/01/09 03:55:01;;;;;;;21.03;13.20;;;2.50;85.10;;;;;;5012009;28;20392;-70
2021/01/09 03:57:27;;;;;;;19.27;12.52;;;2.60;85.10;;;;;;5013085;28;20389;-70
2021/01/09 03:59:52;;;;;;;17.13;11.40;;;2.70;87.00;;;;;;5012728;28;20392;-70
2021/01/09 04:02:18;;;;;;;15.90;11.40;;;3.20;80.20;;;;;;5012726;28;20399;-70
2021/01/09 04:04:44;;;;;;;15.50;11.23;;;3.50;73.20;;;;;;5012765;28;20407;-70
2021/01/09 04:07:10;;;;;;;16.37;11.10;;;3.50;70.70;;;;;;5012780;28;20407;-70
2021/01/09 04:09:35;;;;;;;17.13;10.63;;;3.50;70.60;;;;;;5011817;28;20475;-71
2021/01/09 04:12:01;;;;;;;18.33;11.40;;;3.60;69.60;;;;;;5012063;28;20397;-70
2021/01/09 04:14:26;;;;;;;22.60;12.50;;;3.50;69.50;;;;;;5012085;28;20396;-71
2021/01/09 04:16:52;;;;;;;21.02;12.13;;;3.50;70.70;;;;;;5012862;28;20384;-71
2021/01/09 04:19:18;;;;;;;16.77;12.00;;;3.60;70.70;;;;;;5012288;28;20475;-71
2021/01/09 04:21:51;;;;;;;19.13;12.83;;;3.50;70.10;;;;;;5012121;28;20855;-72
2021/01/09 04:24:21;;;;;;;22.90;13.63;;;3.10;73.00;;;;;;4992907;28;20473;-71
2021/01/09 04:26:58;;;;;;;19.70;13.77;;;3.10;76.30;;;;;;4992949;28;20401;-71
2021/01/09 04:29:24;;;;;;;22.83;14.18;;;2.90;79.60;;;;;;4992489;28;20429;-70
2021/01/09 04:31:50;;;;;;;21.95;14.55;;;2.80;81.20;;;;;;4993000;28;20395;-70
2021/01/09 04:34:17;;;;;;;20.90;13.73;;;2.90;82.00;;;;;;4992952;28;20469;-70
2021/01/09 04:36:43;;;;;;;22.08;13.52;;;3.10;80.50;;;;;;5005893;28;20906;-70
2021/01/09 04:39:08;;;;;;;22.20;14.30;;;3.00;80.30;;;;;;5012396;28;20488;-70
2021/01/09 04:41:36;;;;;;;21.33;13.35;;;2.90;81.90;;;;;;5011997;28;20393;-71
2021/01/09 04:44:03;;;;;;;50.10;24.55;;;3.00;82.20;;;;;;5012281;28;20961;-70
2021/01/09 04:46:31;;;;;;;38.90;20.02;;;2.90;82.50;;;;;;5012099;28;20389;-71
2021/01/09 04:48:58;;;;;;;24.27;15.20;;;3.10;80.50;;;;;;5011567;28;20409;-70
2021/01/09 04:51:26;;;;;;;23.02;14.70;;;3.00;80.10;;;;;;5011564;28;20436;-73
2021/01/09 04:53:54;;;;;;;28.05;16.45;;;3.10;80.40;;;;;;5012167;28;20392;-71
2021/01/09 04:56:20;;;;;;;33.72;17.13;;;3.20;78.80;;;;;;5011581;28;20395;-72
2021/01/09 04:58:46;;;;;;;28.23;16.23;;;3.10;77.70;;;;;;5011664;28;20853;-71
2021/01/09 05:01:12;;;;;;;34.88;18.40;;;3.30;76.70;;;;;;5011788;28;20491;-71
2021/01/09 05:03:38;;;;;;;37.28;19.30;;;3.40;75.00;;;;;;5011442;28;20427;-72
2021/01/09 05:06:03;;;;;;;38.85;19.63;;;3.40;76.70;;;;;;5010894;28;20404;-71
2021/01/09 05:08:29;;;;;;;42.90;20.90;;;3.50;73.90;;;;;;5010303;28;20416;-71
2021/01/09 05:10:55;;;;;;;94.47;35.13;;;3.50;73.60;;;;;;5011361;28;20417;-70
2021/01/09 05:13:23;;;;;;;81.80;33.47;;;3.50;75.90;;;;;;5008862;28;20395;-71
2021/01/09 05:15:53;;;;;;;98.75;37.30;;;3.50;74.40;;;;;;4991845;28;20469;-72
2021/01/09 05:18:19;;;;;;;94.95;35.30;;;3.70;73.70;;;;;;5010691;28;20798;-71
2021/01/09 05:20:44;;;;;;;90.63;34.37;;;3.90;70.70;;;;;;5011316;28;20381;-71
2021/01/09 05:23:11;;;;;;;102.80;37.40;;;3.80;71.40;;;;;;5010088;28;20418;-71
2021/01/09 05:25:37;;;;;;;100.37;35.47;;;3.80;70.00;;;;;;5011345;28;20472;-70
2021/01/09 05:28:04;;;;;;;106.15;35.80;;;3.80;71.10;;;;;;5011436;28;20500;-71
2021/01/09 05:30:31;;;;;;;105.07;36.60;;;3.80;71.20;;;;;;5010204;28;20806;-72
2021/01/09 05:32:56;;;;;;;95.80;36.05;;;3.80;72.80;;;;;;5011355;28;20385;-70
2021/01/09 05:35:22;;;;;;;97.50;34.73;;;3.70;71.90;;;;;;5011092;28;20404;-70
2021/01/09 05:37:49;;;;;;;74.63;29.90;;;3.90;71.70;;;;;;5010951;28;20767;-72
2021/01/09 05:40:15;;;;;;;95.40;32.78;;;4.00;67.10;;;;;;5010709;28;20389;-70
2021/01/09 05:42:41;;;;;;;73.57;29.20;;;4.00;66.50;;;;;;5011065;28;20519;-71
2021/01/09 05:45:08;;;;;;;70.73;27.10;;;4.00;66.60;;;;;;5010577;28;20475;-70
2021/01/09 05:47:37;;;;;;;71.13;27.83;;;3.80;66.40;;;;;;5010210;28;20411;-71
2021/01/09 05:50:04;;;;;;;76.70;29.40;;;3.60;68.80;;;;;;5010417;28;20411;-71
2021/01/09 05:52:29;;;;;;;74.50;27.85;;;3.50;70.50;;;;;;5010675;28;20866;-72
2021/01/09 05:54:59;;;;;;;78.20;28.77;;;3.40;72.00;;;;;;5011002;28;20395;-71
2021/01/09 05:57:29;;;;;;;72.85;29.15;;;3.40;73.10;;;;;;5009887;28;20415;-71
2021/01/09 05:59:59;;;;;;;57.10;24.05;;;3.30;74.50;;;;;;5010608;28;20396;-71
2021/01/09 06:02:25;;;;;;;63.15;26.23;;;3.30;73.60;;;;;;5010869;28;20475;-71
2021/01/09 06:05:05;;;;;;;61.85;24.80;;;3.40;73.50;;;;;;5010904;28;20388;-71
2021/01/09 06:07:36;;;;;;;59.70;23.85;;;3.40;73.00;;;;;;5010752;28;20393;-71
2021/01/09 06:10:11;;;;;;;47.10;21.00;;;3.40;72.40;;;;;;5010540;28;20416;-71
2021/01/09 06:12:49;;;;;;;52.17;21.75;;;3.40;73.00;;;;;;5010115;28;20901;-70
2021/01/09 06:15:19;;;;;;;48.72;20.83;;;3.40;72.40;;;;;;4991422;28;20402;-71
2021/01/09 06:17:46;;;;;;;49.88;22.40;;;3.40;73.70;;;;;;4991102;28;20382;-74
2021/01/09 06:20:12;;;;;;;48.92;22.25;;;3.20;74.60;;;;;;4995625;28;20395;-70
2021/01/09 06:22:38;;;;;;;39.47;18.83;;;3.20;78.70;;;;;;5010463;28;20392;-70
2021/01/09 06:25:05;;;;;;;37.63;19.00;;;3.40;75.90;;;;;;5009895;28;20407;-70
2021/01/09 06:27:34;;;;;;;40.05;19.67;;;3.30;76.30;;;;;;5010585;28;20420;-70
2021/01/09 06:30:04;;;;;;;42.30;20.60;;;3.40;74.30;;;;;;5010335;28;20412;-71
2021/01/09 06:32:37;;;;;;;43.83;20.90;;;3.20;75.00;;;;;;5010835;28;20412;-72
2021/01/09 06:35:05;;;;;;;42.08;19.83;;;3.10;77.10;;;;;;5010574;28;20423;-72
2021/01/09 06:37:30;;;;;;;41.70;20.00;;;3.30;77.40;;;;;;5010263;28;20416;-73
2021/01/09 06:39:56;;;;;;;41.85;20.73;;;3.20;76.40;;;;;;5011693;28;20427;-74
2021/01/09 06:42:24;;;;;;;45.05;21.15;;;3.10;78.20;;;;;;5010814;28;20862;-72
2021/01/09 06:44:53;;;;;;;39.92;20.80;;;3.30;80.40;;;;;;5012176;28;20393;-74
2021/01/09 06:47:30;;;;;;;43.72;21.35;;;3.40;77.70;;;;;;5011404;28;20420;-74
2021/01/09 06:50:18;;;;;;;45.83;21.60;;;3.40;75.30;;;;;;4996269;28;20757;-73
2021/01/09 06:52:56;;;;;;;42.17;19.60;;;3.50;76.20;;;;;;5011123;28;20392;-72
2021/01/09 06:55:36;;;;;;;40.20;18.30;;;3.80;67.20;;;;;;5019927;28;20427;-72
2021/01/09 06:58:06;;;;;;;41.97;20.58;;;3.90;66.10;;;;;;5019209;28;20411;-72
2021/01/09 07:00:31;;;;;;;41.55;20.60;;;3.90;65.70;;;;;;5018075;28;20419;-71
2021/01/09 07:03:17;;;;;;;43.53;20.03;;;3.80;66.00;;;;;;5018593;28;20424;-72
2021/01/09 07:05:46;;;;;;;44.37;20.70;;;3.80;69.20;;;;;;5007260;28;20408;-72
2021/01/09 07:08:25;;;;;;;47.35;21.38;;;3.70;70.40;;;;;;5018657;28;20392;-72
2021/01/09 07:11:04;;;;;;;46.75;22.38;;;3.40;73.20;;;;;;5018169;28;20395;-74
2021/01/09 07:13:31;;;;;;;48.80;21.98;;;3.50;76.60;;;;;;5014885;28;20394;-72
2021/01/09 07:16:14;;;;;;;52.13;23.73;;;3.50;73.30;;;;;;4999600;28;20398;-72
2021/01/09 07:18:50;;;;;;;57.47;24.05;;;3.40;74.60;;;;;;5015330;28;20956;-71
2021/01/09 07:21:19;;;;;;;54.40;24.70;;;3.50;77.00;;;;;;5018681;28;20478;-72
2021/01/09 07:23:54;;;;;;;57.53;24.48;;;3.60;74.50;;;;;;5018275;28;20455;-73
2021/01/09 07:26:20;;;;;;;55.03;23.98;;;3.50;73.90;;;;;;5017233;28;20479;-71
2021/01/09 07:28:47;;;;;;;56.30;23.90;;;3.60;73.90;;;;;;5018936;28;20404;-72
2021/01/09 07:31:13;;;;;;;60.45;24.80;;;3.90;67.60;;;;;;5020791;28;20458;-72
2021/01/09 07:33:42;;;;;;;67.43;25.90;;;3.90;66.00;;;;;;5020924;28;20393;-72
2021/01/09 07:36:11;;;;;;;67.43;26.90;;;3.80;69.20;;;;;;5017429;28;20385;-71
2021/01/09 07:38:47;;;;;;;68.22;27.35;;;3.90;67.70;;;;;;5019444;28;20401;-72
2021/01/09 07:41:32;;;;;;;74.32;27.38;;;3.70;69.70;;;;;;5022196;28;20476;-72
2021/01/09 07:44:14;;;;;;;65.15;27.25;;;3.80;70.80;;;;;;5021833;28;20484;-72
2021/01/09 07:46:50;;;;;;;60.47;23.90;;;3.90;70.60;;;;;;5021874;28;20433;-71
2021/01/09 07:49:36;;;;;;;58.67;24.23;;;3.80;71.10;;;;;;5022241;28;20408;-72
2021/01/09 07:52:04;;;;;;;55.50;23.65;;;3.90;68.30;;;;;;5018598;28;20412;-73
2021/01/09 07:54:46;;;;;;;56.38;22.85;;;4.00;67.60;;;;;;5015282;28;20504;-72
2021/01/09 07:57:17;;;;;;;50.05;22.35;;;3.90;67.90;;;;;;5021323;28;20384;-71
2021/01/09 07:59:45;;;;;;;54.30;22.98;;;3.80;68.20;;;;;;5021220;28;20412;-72
2021/01/09 08:02:11;;;;;;;56.15;23.23;;;3.60;70.80;;;;;;5019044;28;20428;-72
2021/01/09 08:04:36;;;;;;;49.87;22.17;;;3.40;73.20;;;;;;5016836;28;20397;-73
2021/01/09 08:07:02;;;;;;;50.22;22.00;;;3.70;72.90;;;;;;5019902;28;20396;-73
2021/01/09 08:09:28;;;;;;;54.28;24.35;;;3.50;71.00;;;;;;5020514;28;20767;-72
2021/01/09 08:11:54;;;;;;;64.00;24.60;;;3.30;73.30;;;;;;5019626;28;20391;-72
2021/01/09 08:14:19;;;;;;;70.97;26.35;;;3.20;75.70;;;;;;5008985;28;20402;-72
2021/01/09 08:16:45;;;;;;;63.42;26.15;;;3.20;77.10;;;;;;5011174;28;20404;-72
2021/01/09 08:19:18;;;;;;;68.10;27.30;;;3.10;78.10;;;;;;5019248;28;20961;-72
2021/01/09 08:21:52;;;;;;;74.43;26.73;;;3.10;79.80;;;;;;5019644;28;20389;-72
2021/01/09 08:24:25;;;;;;;74.45;27.52;;;3.30;79.80;;;;;;5018671;28;20395;-71
2021/01/09 08:26:55;;;;;;;60.13;25.30;;;3.30;78.70;;;;;;5020008;28;20397;-73
2021/01/09 08:29:21;;;;;;;56.92;23.90;;;3.70;74.50;;;;;;5019493;28;20420;-72
2021/01/09 08:31:52;;;;;;;58.60;24.85;;;3.60;71.00;;;;;;5019102;28;20397;-73
2021/01/09 08:34:18;;;;;;;57.03;24.35;;;3.70;70.90;;;;;;5019081;28;20408;-73
2021/01/09 08:36:44;;;;;;;59.63;23.77;;;3.90;65.20;;;;;;5016741;28;20403;-72
2021/01/09 08:39:10;;;;;;;53.22;23.83;;;4.00;65.10;;;;;;5017139;28;20388;-72
2021/01/09 08:41:37;;;;;;;61.30;26.95;;;3.80;66.20;;;;;;5017902;28;20416;-72
2021/01/09 08:44:10;;;;;;;68.68;31.70;;;3.90;67.50;;;;;;5018261;28;20389;-73
2021/01/09 08:46:36;;;;;;;68.22;32.45;;;4.10;68.60;;;;;;5018856;28;20433;-72
2021/01/09 08:49:03;;;;;;;57.27;26.80;;;4.30;67.00;;;;;;5016971;28;20497;-72
2021/01/09 08:51:30;;;;;;;81.45;40.08;;;4.50;65.40;;;;;;5014759;28;20389;-73
2021/01/09 08:53:58;;;;;;;75.50;37.30;;;4.60;66.70;;;;;;5017981;28;20384;-72
2021/01/09 08:56:27;;;;;;;51.22;25.35;;;4.70;66.90;;;;;;5018306;28;20393;-71
2021/01/09 08:58:53;;;;;;;77.93;31.40;;;4.80;61.80;;;;;;5015466;28;20421;-73
2021/01/09 09:01:24;;;;;;;60.72;24.88;;;4.60;63.00;;;;;;5013177;28;20401;-73
2021/01/09 09:03:55;;;;;;;62.15;24.38;;;4.60;58.50;;;;;;5015067;28;20401;-74
2021/01/09 09:06:28;;;;;;;65.90;29.20;;;4.50;60.70;;;;;;5014864;28;20785;-73
2021/01/09 09:08:54;;;;;;;65.72;25.45;;;4.40;62.70;;;;;;5014534;28;20407;-74
2021/01/09 09:11:25;;;;;;;65.03;25.13;;;4.30;61.80;;;;;;5014446;28;20890;-73
2021/01/09 09:14:03;;;;;;;74.28;27.70;;;4.00;63.80;;;;;;5010061;28;20480;-70
2021/01/09 09:16:29;;;;;;;65.47;25.90;;;3.80;67.30;;;;;;5009107;28;20451;-73
2021/01/09 09:18:55;;;;;;;78.93;27.57;;;3.70;69.40;;;;;;5010820;28;20401;-71
2021/01/09 09:21:23;;;;;;;72.22;28.30;;;3.70;69.90;;;;;;5010683;28;20846;-73
2021/01/09 09:23:53;;;;;;;75.30;30.00;;;3.60;69.60;;;;;;5011445;28;20475;-72
2021/01/09 09:26:19;;;;;;;68.95;29.27;;;3.50;72.50;;;;;;5010324;28;20886;-73
2021/01/09 09:28:50;;;;;;;83.30;29.50;;;3.50;72.90;;;;;;5009389;28;20406;-73
2021/01/09 09:31:26;;;;;;;90.13;33.17;;;3.50;71.70;;;;;;5010266;28;20766;-72
2021/01/09 09:34:10;;;;;;;90.30;32.03;;;3.40;71.90;;;;;;5010737;28;20894;-71
2021/01/09 09:36:56;;;;;;;95.87;32.90;;;3.30;73.70;;;;;;5010807;28;20886;-72
2021/01/09 09:39:24;;;;;;;88.18;33.22;;;3.40;73.70;;;;;;5010721;28;20764;-72
2021/01/09 09:42:00;;;;;;;86.40;32.13;;;3.40;73.70;;;;;;5010519;28;20399;-72
2021/01/09 09:44:40;;;;;;;80.22;31.25;;;3.50;74.20;;;;;;5009489;28;20960;-72
2021/01/09 09:47:25;;;;;;;78.60;32.47;;;3.70;72.90;;;;;;5010112;28;20436;-72
2021/01/09 09:49:50;;;;;;;79.35;30.38;;;3.80;73.40;;;;;;5003568;28;20413;-73
2021/01/09 09:52:21;;;;;;;87.32;32.63;;;3.90;67.70;;;;;;5008186;28;20476;-72
2021/01/09 09:54:59;;;;;;;91.53;33.88;;;3.90;67.30;;;;;;5008871;28;20393;-73
2021/01/09 09:57:25;;;;;;;107.95;38.20;;;3.90;68.70;;;;;;5003715;28;20779;-71
2021/01/09 10:00:15;;;;;;;109.87;38.63;;;3.90;68.90;;;;;;5010021;28;20482;-71
2021/01/09 10:02:55;;;;;;;138.00;46.00;;;3.80;72.00;;;;;;4983784;28;20497;-72
2021/01/09 10:05:21;;;;;;;134.93;46.40;;;3.70;73.00;;;;;;4994287;28;20397;-73
2021/01/09 10:07:46;;;;;;;127.55;45.72;;;3.70;72.60;;;;;;5010737;28;20825;-73
2021/01/09 10:10:17;;;;;;;129.13;44.93;;;3.90;70.70;;;;;;5009879;28;20555;-73
2021/01/09 10:12:54;;;;;;;126.55;46.15;;;3.90;69.10;;;;;;5010254;28;20389;-75
2021/01/09 10:15:19;;;;;;;138.57;46.58;;;3.90;70.10;;;;;;5010396;28;20901;-72
2021/01/09 10:17:45;;;;;;;134.27;45.63;;;4.20;70.40;;;;;;5010584;28;20397;-73
2021/01/09 10:20:11;;;;;;;148.30;49.50;;;4.40;64.70;;;;;;5010940;28;20783;-74
2021/01/09 10:22:40;;;;;;;153.50;50.42;;;4.30;66.00;;;;;;5010679;28;20424;-72
2021/01/09 10:25:06;;;;;;;153.90;53.00;;;4.20;67.10;;;;;;5009807;28;20404;-74
2021/01/09 10:27:31;;;;;;;156.85;50.75;;;4.20;68.00;;;;;;5009788;28;20965;-74
2021/01/09 10:29:57;;;;;;;160.68;50.55;;;4.00;68.00;;;;;;5009204;28;20422;-73
2021/01/09 10:32:22;;;;;;;148.17;48.57;;;4.10;68.10;;;;;;5010148;28;20385;-72
2021/01/09 10:34:48;;;;;;;158.77;49.60;;;4.10;66.90;;;;;;5010629;28;20430;-73
2021/01/09 10:37:13;;;;;;;153.40;49.43;;;4.00;68.20;;;;;;5012232;28;20389;-74
2021/01/09 10:39:39;;;;;;;166.03;49.17;;;3.90;70.00;;;;;;5009905;28;20399;-72
2021/01/09 10:42:04;;;;;;;153.20;46.50;;;4.10;70.20;;;;;;5012004;28;20719;-72
2021/01/09 10:44:30;;;;;;;148.07;45.07;;;4.10;69.00;;;;;;5011715;28;20404;-73
2021/01/09 10:46:55;;;;;;;135.27;42.17;;;4.50;67.00;;;;;;5010455;28;20412;-73
2021/01/09 10:49:21;;;;;;;127.37;42.53;;;4.40;65.20;;;;;;5010906;28;20420;-71
2021/01/09 10:51:46;;;;;;;126.87;41.60;;;4.30;65.50;;;;;;5011204;28;20886;-72
2021/01/09 10:54:12;;;;;;;130.60;43.13;;;4.10;66.60;;;;;;5011401;28;20399;-71
2021/01/09 10:56:44;;;;;;;118.13;41.55;;;4.00;68.30;;;;;;5009619;28;20397;-72
2021/01/09 10:59:10;;;;;;;124.13;43.20;;;4.00;69.60;;;;;;5011284;28;20396;-71
2021/01/09 11:01:35;;;;;;;131.03;43.47;;;4.00;69.40;;;;;;5011680;28;20904;-72
2021/01/09 11:04:01;;;;;;;110.45;40.60;;;3.90;71.70;;;;;;5012341;28;20396;-74
2021/01/09 11:06:26;;;;;;;106.45;39.17;;;4.10;67.80;;;;;;5014105;28;20750;-71
2021/01/09 11:08:52;;;;;;;117.32;40.65;;;4.20;67.10;;;;;;5013494;28;20411;-74
2021/01/09 11:11:19;;;;;;;111.78;40.45;;;4.20;66.50;;;;;;5013227;28;20421;-72
2021/01/09 11:13:44;;;;;;;120.60;40.53;;;4.20;68.00;;;;;;5007944;28;20426;-73
2021/01/09 11:16:10;;;;;;;113.15;42.90;;;4.20;68.20;;;;;;5006977;28;20917;-73
2021/01/09 11:18:36;;;;;;;110.13;41.22;;;4.10;69.80;;;;;;5014164;28;20388;-72
2021/01/09 11:21:01;;;;;;;135.32;43.75;;;4.20;70.70;;;;;;5014436;28;20400;-73
2021/01/09 11:23:27;;;;;;;113.30;40.07;;;4.20;71.00;;;;;;5013976;28;20965;-72
2021/01/09 11:25:52;;;;;;;102.93;39.00;;;4.30;70.00;;;;;;5014740;28;20447;-71
2021/01/09 11:28:18;;;;;;;96.87;36.00;;;4.50;65.50;;;;;;5013078;28;20447;-71
2021/01/09 11:30:45;;;;;;;106.07;37.53;;;4.50;63.50;;;;;;5013933;28;20421;-71
2021/01/09 11:33:11;;;;;;;95.63;36.67;;;4.50;63.50;;;;;;5015661;28;20393;-70
2021/01/09 11:35:40;;;;;;;95.07;36.70;;;4.30;64.10;;;;;;5015336;28;20894;-70
2021/01/09 11:38:06;;;;;;;95.28;36.28;;;4.20;66.00;;;;;;5014980;28;20396;-71
2021/01/09 11:40:32;;;;;;;97.03;37.40;;;4.20;67.10;;;;;;5014119;28;20405;-70
2021/01/09 11:42:58;;;;;;;93.03;37.40;;;4.30;66.90;;;;;;5014043;28;20447;-71
2021/01/09 11:45:23;;;;;;;101.60;38.97;;;4.30;67.60;;;;;;5015000;28;20407;-70
2021/01/09 11:47:50;;;;;;;103.45;39.40;;;4.30;68.30;;;;;;5014920;28;20399;-70
2021/01/09 11:50:16;;;;;;;96.17;36.70;;;4.20;68.10;;;;;;5014026;28;20495;-70
2021/01/09 11:52:42;;;;;;;85.95;35.55;;;4.20;67.60;;;;;;5012203;28;20874;-71
2021/01/09 11:55:08;;;;;;;74.80;31.25;;;4.20;67.40;;;;;;5015081;28;20388;-71
2021/01/09 11:57:34;;;;;;;69.10;28.40;;;4.30;65.80;;;;;;5015062;28;20389;-70
2021/01/09 12:00:00;;;;;;;60.42;28.48;;;4.30;66.90;;;;;;5014718;28;20714;-70
2021/01/09 12:02:25;;;;;;;59.42;28.02;;;4.20;67.40;;;;;;5014473;28;20930;-70
2021/01/09 12:04:51;;;;;;;57.90;27.20;;;4.20;66.90;;;;;;5012914;28;20385;-70
2021/01/09 12:07:16;;;;;;;58.70;27.00;;;4.20;65.70;;;;;;5013795;28;20399;-72
2021/01/09 12:09:42;;;;;;;51.10;24.80;;;4.20;66.40;;;;;;5012649;28;20901;-72
2021/01/09 12:12:07;;;;;;;49.93;24.53;;;4.10;66.90;;;;;;5012000;28;20770;-71
2021/01/09 12:14:33;;;;;;;48.60;24.45;;;4.10;68.40;;;;;;5002785;28;20401;-71
2021/01/09 12:17:02;;;;;;;46.58;24.58;;;4.10;69.50;;;;;;5010937;28;20405;-71
2021/01/09 12:19:28;;;;;;;50.63;25.20;;;4.20;69.40;;;;;;5010981;28;20479;-70
2021/01/09 12:21:57;;;;;;;44.50;24.38;;;4.20;68.40;;;;;;5010774;28;20877;-71
2021/01/09 12:24:23;;;;;;;46.42;25.55;;;4.30;69.60;;;;;;5011683;28;20397;-71
2021/01/09 12:26:55;;;;;;;46.23;26.27;;;4.50;68.70;;;;;;5011996;28;20393;-72
2021/01/09 12:29:21;;;;;;;54.15;27.08;;;4.70;68.40;;;;;;5011902;28;20467;-72
2021/01/09 12:31:48;;;;;;;44.20;24.67;;;4.80;64.70;;;;;;5011800;28;20755;-72
2021/01/09 12:34:15;;;;;;;48.47;24.80;;;4.90;63.20;;;;;;5011792;28;20396;-72
2021/01/09 12:36:41;;;;;;;42.08;22.55;;;4.80;62.30;;;;;;5011700;28;20401;-72
2021/01/09 12:39:06;;;;;;;41.75;22.52;;;4.90;60.50;;;;;;5011804;28;20419;-73